Yorkana, Pennsylvania
Current Conditions -  °F | °C
As of 4:56 PM on Monday 24 Nov 2014 (Local Time) from KMDT Reporting Station
Few Clouds Few Clouds  
Wind Chill: 65°   Ceiling: Unl
Heat Index: 65°   Visibility: 10mi
Dew Point: 50°   Wind: 9mph
Humidity: 58%   Direction: 180°S
Pressure: 29.59"   Gusts: NA
Location:  40.0152°N, 76.5974°W
Report Text: KMDT 242156Z 18008KT 10SM FEW050 18/10 A2959 RMK AO2 SLP019 T01830100
Loading
Personal Weather Stations






























Interactive Weather Map New forecast layout! Learn more

10-Day Weather Forecast

Advertisements
Track Severe Weather on mobile